East Brunswick, NJ - U.S.A.

40° 26' 15"N, 74° 23' 24"W, Elevation 138 ft.

Thursday, November 27, 2014
7:00:00 PM (Eastern)

331st day of the year

Updated and refreshed every 2 minutes. Weather computer in use: Davis Vantage PRO2 Plus


Current Weather:

Current Today's Highs and Lows
Temperature 33.1°F (0.6°C) ↓ 35.8° 1:15 PM
33.1° 6:55 PM
Dew Point 31.1°F (-0.5°C) ↓ 35.0° 1:15 PM
31.1° 6:55 PM
Humidity 92% 97% 12:00 AM
92% 5:46 PM
Wind Gust W 9 mph W 14 3:27 PM
NNW 0 12:00 AM
Wind Speed WNW 4 mph ↑
Light breeze (2)
W 9 2:57 PM
NW 0 12:26 AM
Precipitation 0.23" (5.84 mm) 1
Last 24 hours 0.38"
Instantaneous rate 0.00"/hr
Storm total 1.39"
0.04"2 10:09 AM
0.00"2 12:00 AM
Barometer 30.036" (1017.2 mb)
Rising
30.036" 6:59 PM
29.844" 12:29 AM
Wind Chill Gust 28°F (-2°C) 36° 1:15 PM
25° 6:17 PM
Wind Chill Avg 29°F (-2°C) 36° 1:15 PM
27° 6:18 PM
Heat Index 33°F (0.6°C) 35° 9:25 AM
33° 2:09 AM
Sunshine 0 W/m2
Sunshine minutes 20
149 12:26 PM
0 12:00 AM
UV Index  0.0 0.0 12:00 AM
0.0 12:00 AM
1. Daily total rainfall.
2. Maximum and minimum rainfall are the instantaneous rainfall rates.

'KEBR' METAR REPORT:

METAR KEBR 280000Z AUTO 30004KT 01/M00 A3004 RMK AO1 SLP172 T00061005 10021 20006 60006 

Yesterday's Weather and More...

Webcam
EBWeather Image

Video - Last 3 Hours

Video - Yesterday

Video - Last 3 Days

NJ Region Surface Map
NJ Sfc Map

Weather Data from East Brunswick, NJ

Data generated by WxSolution Version 1.8.7, Build 2013.11.03.